createdAt,value
2023-02-22T00:01:22.462Z,4.00
2023-02-22T00:03:55.820Z,4.00
2023-02-22T00:06:25.246Z,4.00
2023-02-22T00:08:55.728Z,3.90
2023-02-22T00:11:39.342Z,3.90
2023-02-22T00:14:10.332Z,3.90
2023-02-22T00:16:41.301Z,3.80
2023-02-22T00:19:12.771Z,3.80
2023-02-22T00:21:43.836Z,3.80
2023-02-22T00:24:21.417Z,3.80
2023-02-22T00:26:56.130Z,3.70
2023-02-22T00:29:28.532Z,3.70
2023-02-22T00:31:58.078Z,3.70
2023-02-22T00:34:27.369Z,3.60
2023-02-22T00:36:57.181Z,3.60
2023-02-22T00:39:26.527Z,3.60
2023-02-22T00:41:57.242Z,3.50
2023-02-22T00:44:28.175Z,3.50
2023-02-22T00:46:57.550Z,3.50
2023-02-22T00:49:28.872Z,3.50
2023-02-22T00:51:58.233Z,3.40
2023-02-22T00:54:28.744Z,3.40
2023-02-22T00:57:03.692Z,3.40
2023-02-22T00:59:33.296Z,3.30
2023-02-22T01:02:03.768Z,3.30
2023-02-22T01:04:33.266Z,3.30
2023-02-22T01:07:03.706Z,3.30
2023-02-22T01:09:32.770Z,3.20
2023-02-22T01:12:03.496Z,3.20
2023-02-22T01:14:33.042Z,3.20
2023-02-22T01:17:03.650Z,3.20
2023-02-22T01:19:33.196Z,3.10
2023-02-22T01:22:05.341Z,3.10
2023-02-22T01:24:35.706Z,3.10
2023-02-22T01:27:04.332Z,3.10
2023-02-22T01:29:34.328Z,3.10
2023-02-22T01:32:03.844Z,3.00
2023-02-22T01:34:33.834Z,3.00
2023-02-22T01:37:07.421Z,3.00
2023-02-22T01:39:37.020Z,2.90
2023-02-22T01:42:09.244Z,2.90
2023-02-22T01:44:42.205Z,2.90
2023-02-22T01:47:11.699Z,2.80
2023-02-22T01:49:53.119Z,2.80
2023-02-22T01:52:22.879Z,2.70
2023-02-22T01:54:57.756Z,2.80
2023-02-22T01:58:00.041Z,2.70
2023-02-22T02:00:41.609Z,2.70
2023-02-22T02:06:28.742Z,2.70
2023-02-22T02:12:53.233Z,2.60
2023-02-22T02:15:52.138Z,2.60
2023-02-22T02:18:49.880Z,2.50
2023-02-22T02:26:02.563Z,2.50
2023-02-22T02:32:55.884Z,2.40
2023-02-22T02:43:18.097Z,2.30
2023-02-22T02:52:13.232Z,2.20
2023-02-22T02:57:56.646Z,2.20
2023-02-22T03:06:32.512Z,2.10
2023-02-22T03:12:49.656Z,2.00
2023-02-22T03:15:40.162Z,2.00
2023-02-22T03:18:35.998Z,2.00
2023-02-22T03:21:31.849Z,1.90
2023-02-22T03:24:25.367Z,1.90
2023-02-22T03:27:26.161Z,1.90
2023-02-22T03:30:08.402Z,1.90
2023-02-22T03:32:43.167Z,1.90
2023-02-22T03:35:24.190Z,1.80
2023-02-22T03:40:40.387Z,1.80
2023-02-22T03:43:14.424Z,1.80
2023-02-22T03:45:47.844Z,1.80
2023-02-22T03:48:25.063Z,1.80
2023-02-22T03:50:55.122Z,1.80
2023-02-22T03:53:25.445Z,1.80
2023-02-22T03:55:57.903Z,1.70
2023-02-22T03:58:30.032Z,1.70
2023-02-22T04:00:59.844Z,1.70
2023-02-22T04:03:29.292Z,1.60
2023-02-22T04:05:58.906Z,1.60
2023-02-22T04:08:28.349Z,1.70
2023-02-22T04:10:58.557Z,1.60
2023-02-22T04:13:29.286Z,1.60
2023-02-22T04:15:59.953Z,1.60
2023-02-22T04:18:29.309Z,1.60
2023-02-22T04:20:58.759Z,1.60
2023-02-22T04:23:36.319Z,1.60
2023-02-22T04:26:06.528Z,1.50
2023-02-22T04:28:36.036Z,1.50
2023-02-22T04:31:07.262Z,1.50
2023-02-22T04:33:36.849Z,1.50
2023-02-22T04:36:06.533Z,1.50
2023-02-22T04:38:36.652Z,1.50
2023-02-22T04:41:06.223Z,1.50
2023-02-22T04:43:35.917Z,1.50
2023-02-22T04:46:09.699Z,1.50
2023-02-22T04:48:39.170Z,1.40
2023-02-22T04:51:08.891Z,1.40
2023-02-22T04:53:39.355Z,1.40
2023-02-22T04:56:09.292Z,1.40
2023-02-22T04:58:38.737Z,1.40
2023-02-22T05:01:08.505Z,1.40
2023-02-22T05:03:40.888Z,1.40
2023-02-22T05:06:12.409Z,1.30
2023-02-22T05:08:41.830Z,1.30
2023-02-22T05:11:11.214Z,1.30
2023-02-22T05:13:40.601Z,1.30
2023-02-22T05:16:10.141Z,1.30
2023-02-22T05:18:39.671Z,1.30
2023-02-22T05:21:09.133Z,1.30
2023-02-22T05:23:38.533Z,1.30
2023-02-22T05:26:10.706Z,1.30
2023-02-22T05:28:39.486Z,1.20
2023-02-22T05:31:08.984Z,1.20
2023-02-22T05:33:39.649Z,1.20
2023-02-22T05:36:09.565Z,1.20
2023-02-22T05:38:43.484Z,1.20
2023-02-22T05:41:14.265Z,1.20
2023-02-22T05:43:43.943Z,1.20
2023-02-22T05:46:13.444Z,1.20
2023-02-22T05:48:42.862Z,1.20
2023-02-22T05:51:12.253Z,1.20
2023-02-22T05:53:42.599Z,1.20
2023-02-22T05:56:12.045Z,1.20
2023-02-22T05:58:41.500Z,1.20
2023-02-22T06:01:10.996Z,1.20
2023-02-22T06:03:40.450Z,1.10
2023-02-22T06:06:10.456Z,1.10
2023-02-22T06:08:39.924Z,1.20
2023-02-22T06:11:09.669Z,1.20
2023-02-22T06:13:40.481Z,1.20
2023-02-22T06:16:09.962Z,1.20
2023-02-22T06:18:39.356Z,1.20
2023-02-22T06:21:09.969Z,1.30
2023-02-22T06:23:39.389Z,1.30
2023-02-22T06:26:08.914Z,1.30
2023-02-22T06:28:38.261Z,1.30
2023-02-22T06:31:07.628Z,1.30
2023-02-22T06:33:36.923Z,1.30
2023-02-22T06:36:06.746Z,1.30
2023-02-22T06:38:36.118Z,1.30
2023-02-22T06:41:05.640Z,1.40
2023-02-22T06:43:34.938Z,1.40
2023-02-22T06:46:04.480Z,1.40
2023-02-22T06:48:33.838Z,1.40
2023-02-22T06:51:03.193Z,1.40
2023-02-22T06:53:32.526Z,1.40
2023-02-22T06:56:02.229Z,1.50
2023-02-22T06:58:31.551Z,1.50
2023-02-22T07:01:02.575Z,1.50
2023-02-22T07:03:32.059Z,1.50
2023-02-22T07:06:02.142Z,1.50
2023-02-22T07:08:31.876Z,1.50
2023-02-22T07:11:01.320Z,1.60
2023-02-22T07:13:31.069Z,1.60
2023-02-22T07:16:00.482Z,1.60
2023-02-22T07:18:30.931Z,1.60
2023-02-22T07:21:00.472Z,1.70
2023-02-22T07:23:29.901Z,1.70
2023-02-22T07:26:01.740Z,1.80
2023-02-22T07:28:31.335Z,1.80
2023-02-22T07:31:01.323Z,1.80
2023-02-22T07:33:30.822Z,1.90
2023-02-22T07:36:00.616Z,1.90
2023-02-22T07:38:29.989Z,2.00
2023-02-22T07:40:59.978Z,2.00
2023-02-22T07:43:31.447Z,2.10
2023-02-22T07:46:02.879Z,2.20
2023-02-22T07:48:33.013Z,2.20
2023-02-22T07:51:02.431Z,2.30
2023-02-22T07:53:33.604Z,2.40
2023-02-22T07:56:05.621Z,2.40
2023-02-22T07:58:35.916Z,2.50
2023-02-22T08:01:05.184Z,2.50
2023-02-22T08:03:36.690Z,2.60
2023-02-22T08:06:08.383Z,2.60
2023-02-22T08:08:37.771Z,2.70
2023-02-22T08:11:07.211Z,2.80
2023-02-22T08:13:37.257Z,2.80
2023-02-22T08:16:06.945Z,2.90
2023-02-22T08:18:38.229Z,3.00
2023-02-22T08:21:07.749Z,3.00
2023-02-22T08:23:37.064Z,3.10
2023-02-22T08:26:09.362Z,3.20
2023-02-22T08:28:38.737Z,3.30
2023-02-22T08:31:08.853Z,3.40
2023-02-22T08:33:38.371Z,3.40
2023-02-22T08:36:08.092Z,3.50
2023-02-22T08:38:37.703Z,3.60
2023-02-22T08:41:07.125Z,3.70
2023-02-22T08:43:36.462Z,3.90
2023-02-22T08:46:06.161Z,4.00
2023-02-22T08:48:35.553Z,4.30
2023-02-22T08:51:05.058Z,4.50
2023-02-22T08:53:34.503Z,4.80
2023-02-22T08:56:04.059Z,5.10
2023-02-22T08:58:33.437Z,5.40
2023-02-22T09:01:02.948Z,5.40
2023-02-22T09:03:33.001Z,5.50
2023-02-22T09:06:02.455Z,5.60
2023-02-22T09:08:31.905Z,5.70
2023-02-22T09:11:01.265Z,5.80
2023-02-22T09:13:30.573Z,5.90
2023-02-22T09:16:00.113Z,6.10
2023-02-22T09:18:42.415Z,6.30
2023-02-22T09:21:01.492Z,6.50
2023-02-22T09:23:31.228Z,6.60
2023-02-22T09:26:00.536Z,6.60
2023-02-22T09:28:30.060Z,6.70
2023-02-22T09:30:59.390Z,6.80
2023-02-22T09:33:28.891Z,6.90
2023-02-22T09:36:00.020Z,6.90
2023-02-22T09:38:30.310Z,7.00
2023-02-22T09:41:14.713Z,7.10
2023-02-22T09:43:55.682Z,7.20
2023-02-22T09:46:37.708Z,7.30
2023-02-22T09:49:27.981Z,7.40
2023-02-22T09:52:03.188Z,7.50
2023-02-22T09:54:45.090Z,7.60
2023-02-22T09:57:17.507Z,7.70
2023-02-22T10:03:21.479Z,7.90
2023-02-22T10:05:54.177Z,8.10
2023-02-22T10:08:26.781Z,8.20
2023-02-22T10:10:59.647Z,8.30
2023-02-22T10:13:51.539Z,8.40
2023-02-22T10:16:26.961Z,8.40
2023-02-22T10:19:13.826Z,8.50
2023-02-22T10:22:10.749Z,8.60
2023-02-22T10:24:59.682Z,8.60
2023-02-22T10:27:41.053Z,8.80
2023-02-22T10:30:24.832Z,8.90
2023-02-22T10:32:53.251Z,9.10
2023-02-22T10:35:28.414Z,9.10
2023-02-22T10:38:20.469Z,9.30
2023-02-22T10:40:54.731Z,9.30
2023-02-22T10:43:25.790Z,9.50
2023-02-22T10:45:58.280Z,9.70
2023-02-22T10:48:30.197Z,9.70
2023-02-22T10:51:05.480Z,9.80
2023-02-22T10:53:36.729Z,9.80
2023-02-22T10:56:24.232Z,9.90
2023-02-22T10:59:05.778Z,10.00
2023-02-22T11:01:43.280Z,10.10
2023-02-22T11:04:18.720Z,10.10
2023-02-22T11:06:51.410Z,10.00
2023-02-22T11:09:22.826Z,10.10
2023-02-22T11:12:10.188Z,10.20
2023-02-22T11:14:39.614Z,10.40
2023-02-22T11:17:12.342Z,10.50
2023-02-22T11:19:44.765Z,10.60
2023-02-22T11:22:17.221Z,10.60
2023-02-22T11:24:51.629Z,10.60
2023-02-22T11:27:37.961Z,10.60
2023-02-22T11:30:20.687Z,10.70
2023-02-22T11:33:08.478Z,10.70
2023-02-22T11:35:43.689Z,10.80
2023-02-22T11:38:21.896Z,10.80
2023-02-22T11:41:09.684Z,10.90
2023-02-22T11:43:39.131Z,10.90
2023-02-22T11:46:14.498Z,10.80
2023-02-22T11:48:48.425Z,10.80
2023-02-22T11:51:23.512Z,10.80
2023-02-22T11:54:01.645Z,10.80
2023-02-22T11:56:46.034Z,10.70
2023-02-22T11:59:36.575Z,10.70
2023-02-22T12:02:06.691Z,10.70
2023-02-22T12:04:39.839Z,10.70
2023-02-22T12:07:31.943Z,10.70
2023-02-22T12:10:25.435Z,10.80
2023-02-22T12:13:12.998Z,10.80
2023-02-22T12:15:51.174Z,10.80
2023-02-22T12:18:23.576Z,10.80
2023-02-22T12:20:56.792Z,10.80
2023-02-22T12:23:44.963Z,10.90
2023-02-22T12:26:19.140Z,10.90
2023-02-22T12:28:56.194Z,10.90
2023-02-22T12:31:33.145Z,10.90
2023-02-22T12:34:30.003Z,10.90
2023-02-22T12:37:20.557Z,10.80
2023-02-22T12:40:08.452Z,10.80
2023-02-22T12:42:52.813Z,10.80
2023-02-22T12:45:37.316Z,10.90
2023-02-22T12:48:17.462Z,10.90
2023-02-22T12:50:49.866Z,10.90
2023-02-22T12:53:38.163Z,10.90
2023-02-22T12:56:28.625Z,10.80
2023-02-22T12:58:59.974Z,10.80
2023-02-22T13:01:32.352Z,10.70
2023-02-22T13:04:18.445Z,10.70
2023-02-22T13:06:55.948Z,10.80
2023-02-22T13:09:52.430Z,10.90
2023-02-22T13:12:42.868Z,10.80
2023-02-22T13:15:13.029Z,10.80
2023-02-22T13:18:10.610Z,10.80
2023-02-22T13:20:56.033Z,10.80
2023-02-22T13:23:31.190Z,10.70
2023-02-22T13:26:08.086Z,10.70
2023-02-22T13:28:49.291Z,10.70
2023-02-22T13:31:30.757Z,10.70
2023-02-22T13:34:18.056Z,10.80
2023-02-22T13:36:55.623Z,10.80
2023-02-22T13:39:59.924Z,10.80
2023-02-22T13:42:43.643Z,10.70
2023-02-22T13:45:15.127Z,10.60
2023-02-22T13:48:14.789Z,10.60
2023-02-22T13:51:15.955Z,10.60
2023-02-22T13:53:52.945Z,10.50
2023-02-22T13:56:24.400Z,10.40
2023-02-22T13:58:59.824Z,10.30
2023-02-22T14:01:45.551Z,10.30
2023-02-22T14:04:23.733Z,10.20
2023-02-22T14:06:53.272Z,10.10
2023-02-22T14:09:48.606Z,10.00
2023-02-22T14:12:38.815Z,10.10
2023-02-22T14:15:31.242Z,10.10
2023-02-22T14:17:50.502Z,10.10
2023-02-22T14:20:24.726Z,10.10
2023-02-22T14:22:54.252Z,10.10
2023-02-22T14:25:36.352Z,10.10
2023-02-22T14:28:09.108Z,10.10
2023-02-22T14:30:41.909Z,10.00
2023-02-22T14:33:33.544Z,9.90
2023-02-22T14:36:04.741Z,9.90
2023-02-22T14:38:34.821Z,9.90
2023-02-22T14:41:05.034Z,9.90
2023-02-22T14:43:37.004Z,9.90
2023-02-22T14:46:08.492Z,9.80
2023-02-22T14:48:42.533Z,9.90
2023-02-22T14:51:30.191Z,9.80
2023-02-22T14:54:14.876Z,9.80
2023-02-22T14:56:53.393Z,9.70
2023-02-22T14:59:27.928Z,9.70
2023-02-22T15:02:12.892Z,9.60
2023-02-22T15:04:44.198Z,9.60
2023-02-22T15:07:31.497Z,9.50
2023-02-22T15:10:20.605Z,9.40
2023-02-22T15:12:56.866Z,9.40
2023-02-22T15:15:27.578Z,9.40
2023-02-22T15:17:58.451Z,9.40
2023-02-22T15:20:29.209Z,9.40
2023-02-22T15:23:01.509Z,9.30
2023-02-22T15:25:32.231Z,9.30
2023-02-22T15:28:04.420Z,9.30
2023-02-22T15:30:35.204Z,9.30
2023-02-22T15:33:21.360Z,9.20
2023-02-22T15:35:56.420Z,9.20
2023-02-22T15:38:31.233Z,9.20
2023-02-22T15:41:05.656Z,9.10
2023-02-22T15:43:35.251Z,9.00
2023-02-22T15:46:06.737Z,9.00
2023-02-22T15:48:37.295Z,8.90
2023-02-22T15:51:11.185Z,8.90
2023-02-22T15:53:46.676Z,8.90
2023-02-22T15:59:21.828Z,8.80
2023-02-22T16:01:53.953Z,8.80
2023-02-22T16:04:26.133Z,8.70
2023-02-22T16:06:59.523Z,8.70
2023-02-22T16:09:30.255Z,8.60
2023-02-22T16:12:20.908Z,8.60
2023-02-22T16:14:52.307Z,8.60
2023-02-22T16:17:35.566Z,8.60
2023-02-22T16:20:20.397Z,8.60
2023-02-22T16:22:50.567Z,8.50
2023-02-22T16:25:23.581Z,8.50
2023-02-22T16:28:03.198Z,8.50
2023-02-22T16:30:35.409Z,8.40
2023-02-22T16:33:09.557Z,8.40
2023-02-22T16:35:39.001Z,8.40
2023-02-22T16:38:14.078Z,8.30
2023-02-22T16:40:50.517Z,8.30
2023-02-22T16:43:22.779Z,8.30
2023-02-22T16:45:53.062Z,8.30
2023-02-22T16:48:32.498Z,8.20
2023-02-22T16:51:04.365Z,8.20
2023-02-22T16:53:34.018Z,8.20
2023-02-22T16:56:05.983Z,8.20
2023-02-22T16:58:38.407Z,8.10
2023-02-22T17:01:07.962Z,8.10
2023-02-22T17:03:37.294Z,8.10
2023-02-22T17:06:07.061Z,8.10
2023-02-22T17:08:36.369Z,8.00
2023-02-22T17:11:06.186Z,8.00
2023-02-22T17:13:35.647Z,8.00
2023-02-22T17:16:05.553Z,8.00
2023-02-22T17:18:35.584Z,8.00
2023-02-22T17:21:05.235Z,7.90
2023-02-22T17:23:34.620Z,7.90
2023-02-22T17:26:04.666Z,7.90
2023-02-22T17:28:34.071Z,7.90
2023-02-22T17:31:03.585Z,7.90
2023-02-22T17:33:36.672Z,7.90
2023-02-22T17:36:06.484Z,7.80
2023-02-22T17:38:36.383Z,7.80
2023-02-22T17:41:07.375Z,7.80
2023-02-22T17:43:36.767Z,7.80
2023-02-22T17:46:09.538Z,7.80
2023-02-22T17:48:39.679Z,7.80
2023-02-22T17:51:10.783Z,7.80
2023-02-22T17:53:40.457Z,7.80
2023-02-22T17:56:13.440Z,7.80
2023-02-22T17:58:43.018Z,7.70
2023-02-22T18:01:26.980Z,7.80
2023-02-22T18:03:58.866Z,7.80
2023-02-22T18:06:30.042Z,7.70
2023-02-22T18:09:01.495Z,7.70
2023-02-22T18:11:32.731Z,7.70
2023-02-22T18:14:02.255Z,7.70
2023-02-22T18:16:31.694Z,7.70
2023-02-22T18:19:01.552Z,7.70
2023-02-22T18:21:31.154Z,7.70
2023-02-22T18:24:00.624Z,7.60
2023-02-22T18:26:30.149Z,7.60
2023-02-22T18:29:01.050Z,7.60
2023-02-22T18:31:30.553Z,7.60
2023-02-22T18:33:59.937Z,7.60
2023-02-22T18:36:29.311Z,7.60
2023-02-22T18:38:58.679Z,7.60
2023-02-22T18:41:28.570Z,7.60
2023-02-22T18:44:00.200Z,7.60
2023-02-22T18:46:30.356Z,7.60
2023-02-22T18:48:59.245Z,7.50
2023-02-22T18:51:28.738Z,7.50
2023-02-22T18:54:02.299Z,7.50
2023-02-22T18:56:31.769Z,7.50
2023-02-22T18:59:03.638Z,7.50
2023-02-22T19:01:38.201Z,7.50
2023-02-22T19:04:13.567Z,7.50
2023-02-22T19:06:44.903Z,7.40
2023-02-22T19:09:14.200Z,7.40
2023-02-22T19:11:45.146Z,7.40
2023-02-22T19:14:16.374Z,7.40
2023-02-22T19:16:47.985Z,7.40
2023-02-22T19:19:19.575Z,7.40
2023-02-22T19:21:51.250Z,7.40
2023-02-22T19:24:20.840Z,7.30
2023-02-22T19:26:54.470Z,7.30
2023-02-22T19:29:24.347Z,7.30
2023-02-22T19:31:54.042Z,7.30
2023-02-22T19:34:24.599Z,7.30
2023-02-22T19:36:54.077Z,7.30
2023-02-22T19:39:25.126Z,7.30
2023-02-22T19:41:55.116Z,7.30
2023-02-22T19:44:26.166Z,7.30
2023-02-22T19:46:58.524Z,7.20
2023-02-22T19:49:29.025Z,7.20
2023-02-22T19:51:58.489Z,7.20
2023-02-22T19:54:28.944Z,7.20
2023-02-22T19:56:58.781Z,7.20
2023-02-22T19:59:28.518Z,7.20
2023-02-22T20:01:58.485Z,7.20
2023-02-22T20:04:29.609Z,7.20
2023-02-22T20:06:59.125Z,7.20
2023-02-22T20:09:32.226Z,7.20
2023-02-22T20:12:01.713Z,7.10
2023-02-22T20:14:31.169Z,7.10
2023-02-22T20:17:01.215Z,7.10
2023-02-22T20:19:30.764Z,7.10
2023-02-22T20:22:00.344Z,7.00
2023-02-22T20:24:29.724Z,7.00
2023-02-22T20:26:59.200Z,7.00
2023-02-22T20:29:31.386Z,7.00
2023-02-22T20:32:02.711Z,7.00
2023-02-22T20:34:33.633Z,6.90
2023-02-22T20:37:04.825Z,6.90
2023-02-22T20:39:34.242Z,6.90
2023-02-22T20:42:04.963Z,6.90
2023-02-22T20:44:34.326Z,6.90
2023-02-22T20:47:04.245Z,6.90
2023-02-22T20:49:33.959Z,6.90
2023-02-22T20:52:03.655Z,6.80
2023-02-22T20:54:34.588Z,6.80
2023-02-22T20:57:05.525Z,6.80
2023-02-22T20:59:35.385Z,6.80
2023-02-22T21:02:04.937Z,6.80
2023-02-22T21:04:34.378Z,6.70
2023-02-22T21:07:03.741Z,6.70
2023-02-22T21:09:33.881Z,6.70
2023-02-22T21:12:04.248Z,6.70
2023-02-22T21:14:32.862Z,6.70
2023-02-22T21:17:03.825Z,6.70
2023-02-22T21:19:33.324Z,6.60
2023-02-22T21:22:04.854Z,6.60
2023-02-22T21:24:36.099Z,6.60
2023-02-22T21:27:06.960Z,6.60
2023-02-22T21:29:37.243Z,6.60
2023-02-22T21:32:09.554Z,6.50
2023-02-22T21:34:40.201Z,6.50
2023-02-22T21:37:09.571Z,6.40
2023-02-22T21:39:39.015Z,6.40
2023-02-22T21:42:08.456Z,6.40
2023-02-22T21:44:37.903Z,6.40
2023-02-22T21:47:07.462Z,6.30
2023-02-22T21:49:37.921Z,6.30
2023-02-22T21:52:07.564Z,6.20
2023-02-22T21:54:36.983Z,6.20
2023-02-22T21:57:06.288Z,6.20
2023-02-22T21:59:36.186Z,6.20
2023-02-22T22:02:06.034Z,6.20
2023-02-22T22:04:35.476Z,6.10
2023-02-22T22:07:04.852Z,6.10
2023-02-22T22:09:36.354Z,6.00
2023-02-22T22:12:05.971Z,6.00
2023-02-22T22:14:35.909Z,6.00
2023-02-22T22:17:08.720Z,5.90
2023-02-22T22:19:39.674Z,5.90
2023-02-22T22:22:09.377Z,5.90
2023-02-22T22:24:40.535Z,5.90
2023-02-22T22:27:11.486Z,5.80
2023-02-22T22:29:41.014Z,5.80
2023-02-22T22:32:10.594Z,5.80
2023-02-22T22:34:40.188Z,5.80
2023-02-22T22:37:09.504Z,5.80
2023-02-22T22:39:38.983Z,5.80
2023-02-22T22:42:09.081Z,5.80
2023-02-22T22:44:40.360Z,5.70
2023-02-22T22:47:13.682Z,5.70
2023-02-22T22:49:43.093Z,5.70
2023-02-22T22:52:16.107Z,5.70
2023-02-22T22:54:45.565Z,5.70
2023-02-22T22:57:15.619Z,5.70
2023-02-22T22:59:45.000Z,5.70
2023-02-22T23:02:14.370Z,5.70
2023-02-22T23:04:45.555Z,5.60
2023-02-22T23:07:14.865Z,5.60
2023-02-22T23:09:44.613Z,5.60
2023-02-22T23:12:21.507Z,5.60
2023-02-22T23:14:51.866Z,5.60
2023-02-22T23:17:30.009Z,5.60
2023-02-22T23:19:59.553Z,5.60
2023-02-22T23:22:29.034Z,5.50
2023-02-22T23:24:59.849Z,5.50
2023-02-22T23:27:29.370Z,5.50
2023-02-22T23:29:59.346Z,5.60
2023-02-22T23:32:30.289Z,5.50
2023-02-22T23:35:01.870Z,5.50
2023-02-22T23:37:33.543Z,5.50
2023-02-22T23:40:05.638Z,5.50
2023-02-22T23:42:35.046Z,5.50
2023-02-22T23:45:05.131Z,5.50
2023-02-22T23:47:36.387Z,5.40
2023-02-22T23:50:10.102Z,5.50
2023-02-22T23:52:45.368Z,5.50
2023-02-22T23:55:16.374Z,5.40
2023-02-22T23:57:54.120Z,5.40
